Accueil
METAR-TAF:

METAR-TAF

Aéroports :

Farnborough, Angleterre

latitude: 51-17N, longitude: 000-46W, altitude: 65 m

Observation

Le bulletin a été fait il y a 4 heures et 49 minutes, à 18:50 UTC
Vent 8 kt de nord
Température 21°C
Humidité 38%
Pression 1026 hPa
Visibilité 10 km ou plus
pas de nuages en-dessous de 1500 mètres et pas de cumulonimbus.

METAR: EGLF 231850Z 35008KT CAVOK 21/06 Q1026

Heure: 00:39 (23:39 UTC)

Prévision

Le bulletin a été fait il y a 9 heures et 45 minutes, à 13:54 UTC
Prévision valable du 23 à 15 UTC au 23 à 19 UTC
Vent 10 kt de nord/nord-ouest
Visibilité 10 km ou plus
pas de nuages en-dessous de 1500 mètres et pas de cumulonimbus.
Evoluant progressivement
du 23 à 16 UTC au 23 à 19 UTC
Vent 5 kt de nord/nord-est

TAF: EGLF 231354Z 2315/2319 33010KT CAVOK BECMG 2316/2319 03005KT

Observations et prévisions météorologiques de plus de 4000 aéroports (messages METAR et TAF).

Les stations disponibles sont représentées par des disques jaunes et rouges sur la carte.

Passer la souris dessus pour voir le nom de la station.

Cliquer dessus pour voir les observations et prévisions météorologiques.

Pour changer de carte: cliquez sur les boutons verts avec une croix noire pour zoomer, sur le bouton vert avec un tiret pour effectuer un zoom arrière, ou sur les flèches vertes pour les cartes adjacentes.


METAR-TAF: